Terminal Aerodrome Forecast
Issued by NWS Bismarck, ND

Home | Current Version | Previous Version | Text Only | Print | Product List | Glossary Off
Versions: 1 2 3 4 5 6 7 8 9 10 11 12 13 14 15

000
FTUS43 KBIS 011124
TAFISN
TAF
KISN 011124Z 0112/0212 20006KT P6SM FEW090 SCT200
     FM011800 25012G22KT P6SM SCT200
     FM020100 23005KT P6SM SCT150
     FM020600 18005KT P6SM SCT110=

USA.gov is the U.S. government's official web portal to all federal, state and local government web resources and services.